Time;durP1;ratioP1;P1;durP2;ratioP2;P2;SDS_P1;SDS_P2;PMS_P1;PMS_P2;Temp;Humidity;BMP_temperature;BMP_pressure;BME280_temperature;BME280_humidity;BME280_pressure;Samples;Min_cycle;Max_cycle;Signal;HPM_P1;HPM_P2
2021/05/14 00:00:12;;;;;;;9.63;1.67;;;;;;;13.61;66.05;99643.47;5051714;28;20040;-73
2021/05/14 00:03:17;;;;;;;5.75;1.50;;;;;;;13.67;65.84;99650.88;5050666;28;20048;-74
2021/05/14 00:06:21;;;;;;;8.38;1.77;;;;;;;13.49;64.63;99641.28;5051177;28;20399;-74
2021/05/14 00:09:26;;;;;;;5.82;1.40;;;;;;;13.29;64.77;99643.50;5051942;28;20051;-73
2021/05/14 00:12:30;;;;;;;8.02;1.70;;;;;;;13.23;64.66;99652.28;5052284;28;20143;-74
2021/05/14 00:15:35;;;;;;;14.55;1.83;;;;;;;13.12;64.77;99644.50;5049483;28;20052;-74
2021/05/14 00:18:39;;;;;;;8.15;1.50;;;;;;;12.97;64.70;99646.16;5050736;28;20064;-74
2021/05/14 00:21:44;;;;;;;6.10;1.55;;;;;;;12.93;65.24;99650.19;5051440;28;20044;-74
2021/05/14 00:24:48;;;;;;;9.70;2.20;;;;;;;12.92;64.87;99648.50;5052128;28;20503;-74
2021/05/14 00:27:53;;;;;;;4.55;1.35;;;;;;;12.77;64.92;99642.91;5052413;28;20060;-74
2021/05/14 00:30:57;;;;;;;7.07;1.88;;;;;;;12.85;65.39;99656.41;5049562;28;20408;-74
2021/05/14 00:34:02;;;;;;;8.63;1.83;;;;;;;12.94;65.62;99668.03;5049778;28;20435;-72
2021/05/14 00:37:06;;;;;;;6.00;1.45;;;;;;;13.00;64.67;99656.59;5050511;28;20064;-72
2021/05/14 00:40:11;;;;;;;9.38;2.25;;;;;;;12.90;63.91;99656.75;5050744;28;20048;-74
2021/05/14 00:43:16;;;;;;;10.68;1.40;;;;;;;12.92;63.81;99645.81;5049073;28;20404;-75
2021/05/14 00:46:22;;;;;;;7.75;1.65;;;;;;;12.98;64.25;99645.16;5049905;28;20491;-73
2021/05/14 00:49:26;;;;;;;7.50;2.42;;;;;;;13.06;64.46;99647.84;5050226;28;20056;-74
2021/05/14 00:52:31;;;;;;;4.25;1.40;;;;;;;13.14;64.99;99652.41;5050512;28;20578;-74
2021/05/14 00:55:35;;;;;;;7.15;1.80;;;;;;;13.18;63.73;99649.25;5052566;28;20052;-72
2021/05/14 00:58:39;;;;;;;3.95;1.48;;;;;;;13.18;64.37;99654.63;5053056;28;20498;-72
2021/05/14 01:01:44;;;;;;;6.10;1.35;;;;;;;13.16;64.40;99651.22;5053835;28;20052;-73
2021/05/14 01:04:48;;;;;;;5.95;1.45;;;;;;;13.09;64.62;99650.22;5054335;28;20055;-74
2021/05/14 01:07:55;;;;;;;8.30;1.70;;;;;;;13.07;64.72;99651.41;5055291;28;20044;-75
2021/05/14 01:10:59;;;;;;;8.43;1.58;;;;;;;13.07;65.39;99657.63;5053486;28;20049;-74
2021/05/14 01:14:04;;;;;;;13.27;2.28;;;;;;;13.04;65.68;99655.25;5053986;28;20055;-74
2021/05/14 01:17:08;;;;;;;6.75;1.83;;;;;;;13.02;64.72;99650.03;5054538;28;20495;-73
2021/05/14 01:20:16;;;;;;;6.82;1.58;;;;;;;12.83;64.89;99644.97;5055182;28;20044;-74
2021/05/14 01:23:20;;;;;;;10.13;1.85;;;;;;;12.84;65.70;99645.78;5052670;28;20052;-74
2021/05/14 01:26:26;;;;;;;8.68;1.88;;;;;;;12.85;65.86;99648.34;5054003;28;20048;-74
2021/05/14 01:29:30;;;;;;;5.95;1.58;;;;;;;12.80;66.46;99644.44;5054444;28;20048;-73
2021/05/14 01:32:35;;;;;;;7.15;1.85;;;;;;;12.76;66.87;99653.88;5054725;28;20044;-75
2021/05/14 01:35:40;;;;;;;8.02;1.92;;;;;;;12.68;67.19;99645.78;5053220;28;20056;-74
2021/05/14 01:38:44;;;;;;;10.07;1.80;;;;;;;12.69;67.60;99642.09;5054001;28;20048;-73
2021/05/14 01:41:51;;;;;;;9.32;2.33;;;;;;;12.61;67.43;99634.81;5054467;28;20502;-74
2021/05/14 01:44:55;;;;;;;8.65;2.00;;;;;;;12.52;66.94;99629.59;5052561;28;20067;-75
2021/05/14 01:48:00;;;;;;;7.82;1.60;;;;;;;12.50;65.75;99637.81;5053070;28;20396;-75
2021/05/14 01:51:12;;;;;;;8.38;1.83;;;;;;;12.57;66.51;99633.44;5053514;28;20503;-73
2021/05/14 01:53:58;;;;;;;8.23;1.90;;;;;;;12.59;67.86;99639.50;5058520;28;20396;-73
2021/05/14 01:57:02;;;;;;;5.85;1.67;;;;;;;12.67;68.00;99634.16;5053220;28;20040;-74
2021/05/14 02:00:08;;;;;;;8.85;2.10;;;;;;;12.56;69.96;99644.41;5053778;28;20048;-73
2021/05/14 02:03:14;;;;;;;4.88;1.63;;;;;;;12.67;70.59;99644.06;5053674;28;20518;-74
2021/05/14 02:06:19;;;;;;;7.38;1.88;;;;;;;12.44;71.37;99643.03;5052643;28;20048;-72
2021/05/14 02:09:23;;;;;;;7.43;2.15;;;;;;;12.31;70.28;99632.72;5053125;28;20040;-73
2021/05/14 02:12:27;;;;;;;5.03;1.35;;;;;;;12.11;67.80;99633.97;5052820;28;20515;-74
2021/05/14 02:15:32;;;;;;;6.05;2.05;;;;;;;12.09;66.52;99638.69;5054019;28;20056;-74
2021/05/14 02:18:38;;;;;;;8.65;1.80;;;;;;;12.04;66.39;99641.88;5052050;28;20044;-73
2021/05/14 02:21:42;;;;;;;10.93;1.90;;;;;;;12.04;66.87;99646.41;5049784;28;20047;-73
2021/05/14 02:24:49;;;;;;;6.55;1.70;;;;;;;11.93;67.06;99635.91;5054616;28;20396;-73
2021/05/14 02:27:53;;;;;;;10.48;2.10;;;;;;;11.85;67.06;99641.28;5054040;28;20044;-74
2021/05/14 02:30:58;;;;;;;9.40;1.98;;;;;;;11.73;67.17;99648.75;5051050;28;20056;-74
2021/05/14 02:34:02;;;;;;;5.10;1.70;;;;;;;11.66;67.74;99648.50;5051460;28;20059;-74
2021/05/14 02:37:07;;;;;;;6.47;2.03;;;;;;;11.68;68.28;99640.31;5051288;28;20048;-74
2021/05/14 02:40:12;;;;;;;9.80;2.17;;;;;;;11.64;68.45;99641.59;5052642;28;20063;-74
2021/05/14 02:43:17;;;;;;;10.70;2.17;;;;;;;11.64;68.89;99636.22;5051232;28;20048;-73
2021/05/14 02:46:21;;;;;;;10.65;1.85;;;;;;;11.74;68.89;99634.31;5052310;28;20056;-74
2021/05/14 02:49:25;;;;;;;7.35;1.85;;;;;;;11.91;68.35;99633.41;5052452;28;20487;-74
2021/05/14 02:52:29;;;;;;;6.80;2.08;;;;;;;11.97;67.87;99637.28;5052593;28;20048;-74
2021/05/14 02:55:33;;;;;;;14.23;1.80;;;;;;;11.82;68.15;99642.44;5053447;28;20407;-73
2021/05/14 02:58:38;;;;;;;11.80;2.15;;;;;;;11.66;68.62;99637.75;5050667;28;20498;-73
2021/05/14 03:01:42;;;;;;;11.02;2.28;;;;;;;11.48;70.18;99644.22;5052190;28;20059;-72
2021/05/14 03:04:47;;;;;;;8.02;2.22;;;;;;;11.42;70.70;99648.34;5051671;28;20506;-74
2021/05/14 03:07:51;;;;;;;8.23;2.00;;;;;;;11.39;70.63;99647.81;5053278;28;20522;-74
2021/05/14 03:10:56;;;;;;;9.70;2.50;;;;;;;11.40;70.82;99657.56;5052729;28;20068;-74
2021/05/14 03:14:00;;;;;;;9.05;2.20;;;;;;;11.40;70.86;99647.69;5051293;28;20044;-74
2021/05/14 03:17:05;;;;;;;5.95;2.15;;;;;;;11.33;70.48;99648.47;5051506;28;20056;-74
2021/05/14 03:20:10;;;;;;;6.32;2.10;;;;;;;11.25;70.16;99659.97;5052482;28;20523;-74
2021/05/14 03:23:15;;;;;;;9.00;3.20;;;;;;;11.16;69.83;99671.63;5052275;28;20052;-73
2021/05/14 03:26:19;;;;;;;6.90;2.20;;;;;;;10.96;70.70;99664.78;5051041;28;20040;-73
2021/05/14 03:29:24;;;;;;;8.38;2.33;;;;;;;10.97;70.80;99656.56;5051535;28;20052;-74
2021/05/14 03:32:28;;;;;;;9.70;1.90;;;;;;;10.88;71.33;99654.81;5051809;28;20060;-75
2021/05/14 03:35:33;;;;;;;11.40;1.98;;;;;;;10.83;71.79;99649.03;5051105;28;20055;-73
2021/05/14 03:38:38;;;;;;;10.45;3.40;;;;;;;10.96;71.83;99649.47;5050125;28;20044;-73
2021/05/14 03:41:51;;;;;;;6.35;2.30;;;;;;;11.04;72.09;99652.25;5050554;28;20044;-74
2021/05/14 03:44:56;;;;;;;10.63;2.08;;;;;;;10.97;72.15;99651.19;5051331;28;20048;-75
2021/05/14 03:48:00;;;;;;;7.15;2.47;;;;;;;10.98;72.40;99657.41;5050110;28;20044;-74
2021/05/14 03:51:04;;;;;;;10.60;2.10;;;;;;;10.98;72.51;99652.03;5050567;28;20059;-74
2021/05/14 03:54:09;;;;;;;7.07;1.92;;;;;;;11.05;72.38;99659.31;5051299;28;20064;-74
2021/05/14 03:57:14;;;;;;;8.05;2.47;;;;;;;11.15;72.31;99675.34;5051125;28;20056;-74
2021/05/14 04:00:19;;;;;;;7.70;2.17;;;;;;;11.14;70.75;99681.69;5050012;28;20519;-74
2021/05/14 04:03:24;;;;;;;6.70;1.73;;;;;;;11.05;70.92;99680.81;5050438;28;20040;-75
2021/05/14 04:06:29;;;;;;;12.30;1.98;;;;;;;11.08;70.84;99685.84;5051192;28;20115;-73
2021/05/14 04:09:37;;;;;;;8.98;2.00;;;;;;;11.11;70.84;99680.16;5052039;28;20052;-73
2021/05/14 04:15:45;;;;;;;8.23;1.77;;;;;;;11.25;70.70;99675.25;5050529;28;20400;-74
2021/05/14 04:18:50;;;;;;;7.22;1.70;;;;;;;11.47;70.02;99680.13;5050519;28;20052;-75
2021/05/14 04:21:56;;;;;;;10.13;2.30;;;;;;;11.71;68.89;99666.88;5051807;28;20052;-73
2021/05/14 04:25:01;;;;;;;5.28;1.65;;;;;;;11.88;67.65;99668.66;5050061;28;20056;-73
2021/05/14 04:28:05;;;;;;;5.28;1.90;;;;;;;11.94;67.62;99669.88;5056169;28;20380;-73
2021/05/14 04:31:09;;;;;;;9.88;1.83;;;;;;;12.04;66.99;99671.47;5056437;28;20056;-74
2021/05/14 04:34:15;;;;;;;10.30;2.42;;;;;;;12.13;66.41;99677.69;5055337;28;20072;-74
2021/05/14 04:37:20;;;;;;;5.75;1.80;;;;;;;12.47;65.86;99669.63;5042547;28;20053;-74
2021/05/14 04:40:25;;;;;;;8.98;1.95;;;;;;;12.86;64.85;99665.34;5052617;28;20056;-74
2021/05/14 04:43:29;;;;;;;8.02;1.85;;;;;;;13.31;63.63;99679.19;5056738;28;20056;-73
2021/05/14 04:46:34;;;;;;;7.25;1.80;;;;;;;13.98;62.06;99680.63;5067104;28;20048;-74
2021/05/14 04:49:38;;;;;;;6.68;1.83;;;;;;;14.46;59.67;99684.22;5070481;28;20063;-75
2021/05/14 04:52:42;;;;;;;8.60;1.98;;;;;;;14.37;58.88;99693.38;5054810;28;20051;-74
2021/05/14 04:55:47;;;;;;;8.55;2.25;;;;;;;14.22;59.03;99695.94;5054705;28;20055;-73
2021/05/14 04:58:51;;;;;;;9.07;2.13;;;;;;;14.80;58.26;99688.25;5054731;28;20056;-74
2021/05/14 05:01:55;;;;;;;61.13;49.95;;;;;;;15.63;56.71;99695.63;5054659;28;20116;-73
2021/05/14 05:05:00;;;;;;;32.13;20.90;;;;;;;16.29;53.30;99693.72;5054405;28;20056;-75
2021/05/14 05:08:05;;;;;;;7.20;2.30;;;;;;;16.68;52.85;99698.88;5053913;28;20052;-74
2021/05/14 05:11:09;;;;;;;10.75;2.08;;;;;;;17.79;50.34;99698.34;5053735;28;20048;-73
2021/05/14 05:14:14;;;;;;;9.27;1.80;;;;;;;18.41;48.13;99695.63;5053690;28;20048;-72
2021/05/14 05:17:18;;;;;;;6.20;1.85;;;;;;;18.50;47.84;99698.00;5053745;28;20052;-75
2021/05/14 05:20:23;;;;;;;7.82;1.83;;;;;;;19.22;46.45;99697.44;5053521;28;20056;-74
2021/05/14 05:23:27;;;;;;;5.93;1.85;;;;;;;19.57;45.41;99701.72;5054371;28;20067;-73
2021/05/14 05:26:32;;;;;;;11.35;1.95;;;;;;;19.73;45.39;99711.34;5054438;28;20076;-74
2021/05/14 05:29:37;;;;;;;9.52;2.33;;;;;;;19.37;46.58;99712.56;5054607;28;20048;-76
2021/05/14 05:32:41;;;;;;;6.88;2.15;;;;;;;19.54;46.49;99707.56;5053905;28;20044;-76
2021/05/14 05:35:45;;;;;;;6.07;1.85;;;;;;;19.68;46.93;99702.94;5054252;28;20044;-75
2021/05/14 05:38:50;;;;;;;6.40;2.30;;;;;;;20.01;46.38;99703.78;5050714;28;20040;-73
2021/05/14 05:41:55;;;;;;;9.05;2.28;;;;;;;20.97;44.27;99700.19;5052670;28;20039;-77
2021/05/14 05:44:59;;;;;;;6.20;2.53;;;;;;;22.31;41.78;99698.81;5053562;28;20056;-77
2021/05/14 05:48:04;;;;;;;8.35;2.40;;;;;;;24.20;37.78;99691.72;5051870;28;20057;-74
2021/05/14 05:51:11;;;;;;;8.40;2.17;;;;;;;25.78;34.70;99686.47;5051688;28;20044;-76
2021/05/14 05:54:15;;;;;;;6.32;1.90;;;;;;;26.60;33.42;99698.50;5053334;28;20048;-78
2021/05/14 05:57:19;;;;;;;6.75;2.45;;;;;;;27.28;32.44;99702.69;5054034;28;20495;-76
2021/05/14 06:00:24;;;;;;;11.88;2.63;;;;;;;26.61;33.51;99711.19;5055499;28;20048;-74
2021/05/14 06:03:28;;;;;;;10.05;2.50;;;;;;;27.00;33.25;99714.75;5034328;28;20060;-77
2021/05/14 06:06:33;;;;;;;6.22;2.10;;;;;;;27.63;32.48;99708.56;5035400;28;20501;-76
2021/05/14 06:09:37;;;;;;;9.35;2.25;;;;;;;28.18;31.75;99720.13;5035268;28;20056;-85
2021/05/14 06:12:41;;;;;;;5.95;2.00;;;;;;;28.44;31.89;99723.91;5039471;28;20056;-81
2021/05/14 06:15:46;;;;;;;7.78;2.20;;;;;;;29.21;31.07;99712.19;5050394;28;20407;-80
2021/05/14 06:18:56;;;;;;;9.00;2.75;;;;;;;29.92;29.04;99725.09;5052034;28;20051;-79
2021/05/14 06:22:01;;;;;;;8.40;2.60;;;;;;;29.57;29.42;99728.59;5040141;28;20064;-81
2021/05/14 06:25:07;;;;;;;8.15;3.20;;;;;;;31.33;28.74;99726.75;5044040;28;20047;-81
2021/05/14 06:28:20;;;;;;;7.35;2.90;;;;;;;31.57;27.47;99724.97;5054644;28;20052;-81
2021/05/14 06:31:25;;;;;;;7.95;3.05;;;;;;;30.36;28.99;99736.44;5053991;28;20479;-79
2021/05/14 06:34:30;;;;;;;8.70;2.90;;;;;;;30.59;28.42;99738.59;5054049;28;20155;-80
2021/05/14 06:37:37;;;;;;;6.88;2.63;;;;;;;32.12;26.04;99732.88;5054688;28;20048;-80
2021/05/14 06:40:42;;;;;;;5.32;2.10;;;;;;;31.25;26.23;99732.88;5041740;28;20048;-83
2021/05/14 06:43:47;;;;;;;8.35;2.80;;;;;;;33.52;22.75;99737.19;5054531;28;20048;-78
2021/05/14 06:46:51;;;;;;;3.95;1.83;;;;;;;35.61;20.70;99736.78;5052996;28;20052;-76
2021/05/14 06:49:57;;;;;;;8.98;2.00;;;;;;;37.64;18.36;99736.63;5052190;28;20052;-77
2021/05/14 06:53:03;;;;;;;10.05;2.15;;;;;;;36.73;19.17;99741.25;5048283;28;20079;-77
2021/05/14 06:56:07;;;;;;;11.35;6.82;;;;;;;36.29;20.67;99745.75;5053583;28;20052;-77
2021/05/14 06:59:12;;;;;;;13.30;4.85;;;;;;;33.52;22.62;99741.94;5053799;28;20048;-74
2021/05/14 07:02:16;;;;;;;10.15;2.30;;;;;;;31.56;25.12;99741.88;5053896;28;20400;-75
2021/05/14 07:05:21;;;;;;;8.52;1.83;;;;;;;32.29;24.49;99738.03;5053462;28;20043;-77
2021/05/14 07:08:25;;;;;;;8.18;2.38;;;;;;;33.86;22.81;99735.03;5052970;28;20507;-76
2021/05/14 07:11:29;;;;;;;10.70;2.47;;;;;;;37.58;20.59;99735.97;5053542;28;20056;-77
2021/05/14 07:14:34;;;;;;;6.07;1.80;;;;;;;39.43;18.29;99743.84;5050797;28;20051;-74
2021/05/14 07:17:39;;;;;;;6.95;2.00;;;;;;;41.32;17.30;99740.03;5047631;28;20056;-77
2021/05/14 07:20:44;;;;;;;7.88;2.20;;;;;;;40.89;17.24;99737.75;5048837;28;20059;-76
2021/05/14 07:23:48;;;;;;;4.95;2.00;;;;;;;41.71;16.53;99746.06;5048506;28;20048;-76
2021/05/14 07:26:53;;;;;;;12.50;2.25;;;;;;;42.91;15.43;99744.78;5052890;28;20076;-77
2021/05/14 07:29:57;;;;;;;7.22;2.20;;;;;;;43.43;14.70;99754.94;5053265;28;20055;-77
2021/05/14 07:33:02;;;;;;;7.72;1.90;;;;;;;40.92;16.93;99749.47;5052791;28;20052;-75
2021/05/14 07:36:07;;;;;;;6.22;2.20;;;;;;;43.61;15.44;99745.69;5052944;28;20167;-75
2021/05/14 07:39:11;;;;;;;6.55;2.22;;;;;;;43.64;15.51;99747.78;5052064;28;20052;-73
2021/05/14 07:42:15;;;;;;;8.45;2.40;;;;;;;42.97;15.51;99743.28;5045702;28;20049;-79
2021/05/14 07:45:20;;;;;;;7.53;2.50;;;;;;;41.97;16.56;99743.66;5047095;28;20503;-77
2021/05/14 07:48:25;;;;;;;6.88;2.45;;;;;;;40.59;17.59;99755.16;5050780;28;20048;-71
2021/05/14 07:51:29;;;;;;;7.78;2.30;;;;;;;37.72;19.47;99742.25;4993407;28;20493;-74
2021/05/14 07:54:33;;;;;;;8.18;2.53;;;;;;;37.93;19.06;99733.19;4993816;28;20118;-74
2021/05/14 07:57:38;;;;;;;10.35;2.50;;;;;;;40.09;18.22;99730.81;4993746;28;20057;-75
2021/05/14 08:00:44;;;;;;;6.57;2.15;;;;;;;41.22;17.72;99728.38;5007316;28;20405;-78
2021/05/14 08:03:49;;;;;;;8.32;2.13;;;;;;;40.60;17.76;99732.28;5012860;28;20049;-76
2021/05/14 08:06:54;;;;;;;6.85;2.35;;;;;;;39.37;18.25;99733.97;5008904;28;20061;-77
2021/05/14 08:09:58;;;;;;;7.50;2.42;;;;;;;37.72;19.58;99733.03;4998296;28;20072;-77
2021/05/14 08:13:03;;;;;;;6.43;2.25;;;;;;;33.26;23.98;99747.84;4993175;28;20050;-75
2021/05/14 08:16:07;;;;;;;11.32;2.45;;;;;;;32.72;25.10;99748.19;5001496;28;20041;-78
2021/05/14 08:19:12;;;;;;;9.45;2.30;;;;;;;34.55;22.76;99747.28;5012628;28;20517;-77
2021/05/14 08:22:17;;;;;;;11.98;2.53;;;;;;;34.88;22.70;99743.31;5012588;28;20496;-77
2021/05/14 08:25:21;;;;;;;10.90;2.85;;;;;;;31.99;25.69;99741.91;5011804;28;20045;-75
2021/05/14 08:28:26;;;;;;;8.95;3.08;;;;;;;30.29;27.61;99746.94;5013096;28;20049;-77
2021/05/14 08:31:35;;;;;;;14.32;2.42;;;;;;;28.14;29.73;99748.53;5012640;28;20068;-76
2021/05/14 08:34:39;;;;;;;8.15;2.75;;;;;;;28.44;29.61;99746.00;5011996;28;20049;-76
2021/05/14 08:37:46;;;;;;;7.28;2.30;;;;;;;29.13;29.32;99754.16;5012342;28;20044;-76
2021/05/14 08:40:51;;;;;;;6.85;2.22;;;;;;;28.07;31.40;99748.72;5012505;28;20056;-78
2021/05/14 08:43:55;;;;;;;9.80;2.30;;;;;;;27.55;32.99;99758.69;4993128;28;20054;-77
2021/05/14 08:47:00;;;;;;;13.10;3.05;;;;;;;27.21;32.75;99757.97;5005853;28;20042;-77
2021/05/14 08:50:06;;;;;;;11.57;2.40;;;;;;;26.37;34.35;99764.75;5031915;28;20071;-76
2021/05/14 08:53:11;;;;;;;9.00;2.30;;;;;;;25.94;35.33;99754.41;5031300;28;20064;-77
2021/05/14 08:56:16;;;;;;;10.00;2.30;;;;;;;26.25;34.76;99747.50;5039403;28;20590;-77
2021/05/14 08:59:20;;;;;;;8.32;2.42;;;;;;;26.25;35.27;99748.34;5052130;28;20072;-76
2021/05/14 09:02:24;;;;;;;10.50;2.75;;;;;;;25.46;36.58;99745.81;5047212;28;20432;-75
2021/05/14 09:05:34;;;;;;;7.75;2.40;;;;;;;24.98;37.46;99744.31;5020463;28;20492;-76
2021/05/14 09:08:39;;;;;;;10.40;2.13;;;;;;;25.13;37.05;99741.03;5032666;28;20052;-77
2021/05/14 09:11:48;;;;;;;11.32;2.22;;;;;;;25.35;36.89;99743.94;5032528;28;20061;-77
2021/05/14 09:14:53;;;;;;;14.50;2.45;;;;;;;24.49;37.94;99748.38;5034355;28;20400;-77
2021/05/14 09:18:10;;;;;;;11.10;2.60;;;;;;;23.86;39.66;99753.69;5035903;28;20056;-76
2021/05/14 09:21:18;;;;;;;14.85;2.83;;;;;;;24.10;39.55;99746.34;5045130;28;20060;-76
2021/05/14 09:24:28;;;;;;;12.20;2.95;;;;;;;24.65;38.21;99746.81;5055462;28;20040;-76
2021/05/14 09:27:35;;;;;;;8.95;2.40;;;;;;;24.68;38.56;99746.34;5040410;28;20067;-75
2021/05/14 09:31:03;;;;;;;12.43;2.92;;;;;;;25.16;37.93;99749.59;5052314;28;20416;-77
2021/05/14 09:34:11;;;;;;;10.68;2.03;;;;;;;25.08;37.09;99743.66;5051012;28;20052;-76
2021/05/14 09:37:17;;;;;;;11.10;2.28;;;;;;;25.01;37.35;99743.78;5054683;28;20044;-77
2021/05/14 09:40:23;;;;;;;10.93;2.20;;;;;;;25.53;37.20;99741.03;5052261;28;20048;-75
2021/05/14 09:43:28;;;;;;;9.38;2.17;;;;;;;25.63;36.79;99735.69;5054913;28;20044;-78
2021/05/14 09:46:47;;;;;;;11.57;2.28;;;;;;;25.67;36.57;99728.63;5054675;28;20151;-78
2021/05/14 09:49:51;;;;;;;7.88;1.90;;;;;;;25.90;35.67;99722.97;5034952;28;20049;-76
2021/05/14 09:53:05;;;;;;;16.67;2.45;;;;;;;25.92;35.60;99731.00;5052489;28;20040;-78
2021/05/14 09:56:25;;;;;;;10.45;2.50;;;;;;;25.52;36.77;99726.44;5050461;28;20060;-73
2021/05/14 09:59:32;;;;;;;10.90;3.05;;;;;;;24.90;37.97;99721.88;5050877;28;20064;-75
2021/05/14 10:02:38;;;;;;;7.35;2.50;;;;;;;25.01;37.60;99732.00;5053032;28;20415;-73
2021/05/14 10:05:47;;;;;;;12.20;2.42;;;;;;;25.16;37.95;99718.53;5050009;28;20064;-75
2021/05/14 10:08:54;;;;;;;9.60;2.40;;;;;;;25.06;38.56;99732.91;5050629;28;20052;-77
2021/05/14 10:11:59;;;;;;;13.00;3.40;;;;;;;24.78;38.49;99716.41;5048861;28;20396;-76
2021/05/14 10:15:07;;;;;;;11.90;2.42;;;;;;;24.42;39.33;99722.97;5053679;28;20048;-75
2021/05/14 10:18:20;;;;;;;11.98;2.40;;;;;;;23.80;40.37;99720.91;5054412;28;20495;-74
2021/05/14 10:21:25;;;;;;;13.75;2.50;;;;;;;23.64;41.37;99721.56;5050077;28;20056;-78
2021/05/14 10:25:00;;;;;;;13.02;2.53;;;;;;;23.51;41.89;99713.53;5053473;28;20044;-78
2021/05/14 10:28:14;;;;;;;12.27;2.40;;;;;;;23.06;43.13;99718.59;5058357;28;20059;-77
2021/05/14 10:31:23;;;;;;;17.38;3.53;;;;;;;22.82;44.16;99724.97;5053848;28;20388;-71
2021/05/14 10:34:33;;;;;;;10.95;2.72;;;;;;;22.73;43.80;99719.00;5054613;28;20044;-75
2021/05/14 10:37:48;;;;;;;11.48;2.28;;;;;;;22.70;44.57;99724.06;5053524;28;20052;-76
2021/05/14 10:40:52;;;;;;;14.52;2.78;;;;;;;22.55;44.88;99721.69;5050353;28;20052;-75
2021/05/14 10:44:03;;;;;;;15.05;2.60;;;;;;;22.34;45.42;99722.97;5053998;28;20048;-74
2021/05/14 10:47:26;;;;;;;11.30;2.90;;;;;;;22.13;47.05;99717.06;5039884;28;20095;-74
2021/05/14 10:50:32;;;;;;;8.30;3.33;;;;;;;22.03;48.13;99729.34;5035196;28;20057;-77
2021/05/14 10:53:41;;;;;;;8.38;3.03;;;;;;;21.89;49.50;99735.16;5053923;28;20068;-77
2021/05/14 10:56:49;;;;;;;11.57;3.35;;;;;;;21.27;52.29;99779.66;5052029;28;20514;-75
2021/05/14 10:59:56;;;;;;;5.30;1.00;;;;;;;20.16;51.73;99794.34;5051396;28;20052;-82
2021/05/14 11:03:10;;;;;;;7.25;1.65;;;;;;;19.51;58.35;99794.25;5052479;28;20048;-80
2021/05/14 11:06:19;;;;;;;10.40;1.88;;;;;;;19.02;60.52;99806.19;5053866;28;20400;-78
2021/05/14 11:09:24;;;;;;;9.35;2.13;;;;;;;18.32;60.54;99798.19;5054023;28;20048;-82
2021/05/14 11:12:28;;;;;;;6.43;2.03;;;;;;;18.20;63.87;99792.47;5053530;28;20048;-79
2021/05/14 11:15:34;;;;;;;7.97;2.00;;;;;;;18.08;64.58;99791.34;5053817;28;20060;-80
2021/05/14 11:18:50;;;;;;;7.43;1.45;;;;;;;18.02;63.61;99792.09;5046251;28;20056;-78
2021/05/14 11:21:55;;;;;;;7.40;1.83;;;;;;;18.26;64.64;99806.31;5047152;28;20044;-80
2021/05/14 11:25:22;;;;;;;5.13;1.15;;;;;;;18.61;63.74;99802.63;5050681;28;20051;-79
2021/05/14 11:28:44;;;;;;;4.93;1.20;;;;;;;18.56;64.69;99786.91;5052741;28;20048;-77
2021/05/14 11:31:49;;;;;;;5.78;1.08;;;;;;;18.57;63.76;99785.88;5052426;28;20408;-80
2021/05/14 11:34:55;;;;;;;3.58;0.70;;;;;;;18.40;63.61;99773.59;5049136;28;20048;-80
2021/05/14 11:38:02;;;;;;;2.13;0.60;;;;;;;18.39;62.66;99776.53;5052231;28;20039;-80
2021/05/14 11:41:06;;;;;;;2.53;0.70;;;;;;;18.45;63.54;99771.13;5052217;28;20044;-80
2021/05/14 11:44:10;;;;;;;2.22;0.70;;;;;;;18.65;63.18;99774.84;5048038;28;20416;-76
2021/05/14 11:47:15;;;;;;;1.65;0.55;;;;;;;18.67;61.30;99771.91;5051897;28;20051;-80
2021/05/14 11:50:32;;;;;;;1.60;0.45;;;;;;;18.75;61.95;99767.16;5050293;28;20048;-79
2021/05/14 11:53:36;;;;;;;5.45;0.95;;;;;;;18.81;62.75;99766.34;5049269;28;20060;-74
2021/05/14 11:56:42;;;;;;;1.55;0.60;;;;;;;18.93;61.58;99760.34;5040836;28;20060;-73
2021/05/14 11:59:47;;;;;;;3.20;0.50;;;;;;;18.75;62.09;99756.28;5052390;28;20067;-80
2021/05/14 12:02:52;;;;;;;1.55;0.60;;;;;;;18.66;62.78;99757.50;5040316;28;20403;-75
2021/05/14 12:06:23;;;;;;;1.13;0.50;;;;;;;18.71;61.66;99756.88;5040857;28;20048;-74
2021/05/14 12:09:27;;;;;;;1.27;0.50;;;;;;;18.48;62.52;99759.88;5021105;28;20044;-75
2021/05/14 12:12:32;;;;;;;1.73;0.70;;;;;;;18.41;62.18;99767.13;5035754;28;20059;-79
2021/05/14 12:15:38;;;;;;;2.28;0.80;;;;;;;18.46;61.84;99771.97;5034970;28;20064;-73
2021/05/14 12:18:47;;;;;;;1.95;0.75;;;;;;;18.52;63.80;99774.75;5031358;28;20052;-77
2021/05/14 12:21:52;;;;;;;2.50;1.13;;;;;;;18.60;64.15;99777.31;5032180;28;20052;-73
2021/05/14 12:24:57;;;;;;;3.33;1.23;;;;;;;18.63;63.58;99776.91;5024511;28;20409;-74
2021/05/14 12:28:01;;;;;;;3.45;0.70;;;;;;;18.53;63.57;99773.72;5024277;28;20056;-77
2021/05/14 12:31:14;;;;;;;3.85;1.75;;;;;;;18.85;65.48;99772.22;5055786;28;20519;-76
2021/05/14 12:34:22;;;;;;;2.20;0.77;;;;;;;18.84;64.09;99773.25;5041966;28;20048;-74
2021/05/14 12:37:26;;;;;;;3.17;1.00;;;;;;;19.20;63.25;99768.41;5030815;28;20056;-78
2021/05/14 12:40:37;;;;;;;3.63;1.13;;;;;;;19.58;62.85;99759.72;5030552;28;20048;-80
2021/05/14 12:43:42;;;;;;;3.90;1.20;;;;;;;20.04;58.48;99766.91;5026748;28;20048;-76
2021/05/14 12:47:07;;;;;;;6.82;1.20;;;;;;;20.17;56.35;99773.38;5018887;28;20072;-77
2021/05/14 12:50:11;;;;;;;4.20;1.27;;;;;;;20.43;55.44;99770.66;5023778;28;20052;-79
2021/05/14 12:53:22;;;;;;;4.93;1.48;;;;;;;20.72;54.94;99772.91;5024304;28;20052;-77
2021/05/14 12:56:27;;;;;;;3.63;1.20;;;;;;;20.69;53.77;99784.22;5012659;28;20052;-80
2021/05/14 12:59:31;;;;;;;6.53;1.42;;;;;;;20.51;55.10;99775.91;5024128;28;20056;-74
2021/05/14 13:02:36;;;;;;;5.30;1.23;;;;;;;20.49;53.56;99780.72;5012599;28;20515;-76
2021/05/14 13:05:56;;;;;;;7.15;1.65;;;;;;;20.40;53.86;99780.09;5021956;28;20056;-81
2021/05/14 13:09:19;;;;;;;3.97;1.20;;;;;;;20.10;54.68;99778.81;5023712;28;20048;-78
2021/05/14 13:12:23;;;;;;;7.25;1.23;;;;;;;20.17;54.58;99781.56;5036607;28;20052;-80
2021/05/14 13:15:27;;;;;;;7.40;1.23;;;;;;;19.96;54.85;99783.44;5024182;28;20041;-78
2021/05/14 13:18:39;;;;;;;8.65;1.67;;;;;;;19.78;55.25;99783.22;5023955;28;20151;-74
2021/05/14 13:21:44;;;;;;;5.55;1.63;;;;;;;19.61;56.35;99787.38;5024447;28;20048;-80
2021/05/14 13:24:49;;;;;;;5.25;0.85;;;;;;;19.35;56.19;99784.56;5035436;28;20052;-73
2021/05/14 13:27:53;;;;;;;5.10;1.17;;;;;;;19.20;54.90;99789.31;5024156;28;20056;-79
2021/05/14 13:30:58;;;;;;;4.50;1.10;;;;;;;18.84;57.03;99786.84;5027569;28;20396;-81
2021/05/14 13:34:21;;;;;;;7.00;1.42;;;;;;;18.79;58.11;99794.75;5037437;28;20056;-80
2021/05/14 13:37:44;;;;;;;5.00;1.52;;;;;;;18.88;58.33;99798.19;5046425;28;20052;-76
2021/05/14 13:41:07;;;;;;;9.23;2.00;;;;;;;18.73;57.95;99801.88;5055339;28;20048;-73
2021/05/14 13:44:12;;;;;;;5.32;1.33;;;;;;;18.39;57.73;99803.69;5030033;28;20036;-74
2021/05/14 13:47:35;;;;;;;;;;;;;;;18.15;60.25;99804.97;5046471;28;20052;-76
2021/05/14 13:50:40;;;;;;;11.82;2.20;;;;;;;17.97;59.97;99808.16;5025041;28;19917;-73
2021/05/14 13:53:44;;;;;;;7.30;1.60;;;;;;;18.07;59.42;99807.84;5042828;28;20044;-79
2021/05/14 13:56:48;;;;;;;3.88;1.50;;;;;;;18.04;62.47;99811.78;5022773;28;20515;-80
2021/05/14 13:59:52;;;;;;;9.88;1.75;;;;;;;17.96;61.56;99811.06;5040399;28;20502;-78
2021/05/14 14:02:57;;;;;;;5.72;1.45;;;;;;;17.80;63.34;99816.78;5022861;28;20065;-80
2021/05/14 14:06:03;;;;;;;7.03;1.90;;;;;;;17.63;63.71;99818.06;5042174;28;20404;-75
2021/05/14 14:09:07;;;;;;;7.53;1.83;;;;;;;17.79;66.37;99824.06;5031144;28;20052;-76
2021/05/14 14:12:12;;;;;;;6.88;2.03;;;;;;;18.17;68.39;99816.50;5043033;28;20044;-80
2021/05/14 14:15:16;;;;;;;8.60;2.10;;;;;;;18.17;69.36;99802.91;5031518;28;20048;-78
2021/05/14 14:18:21;;;;;;;8.65;2.00;;;;;;;18.12;69.24;99806.19;5032684;28;20060;-80
2021/05/14 14:21:27;;;;;;;9.45;1.70;;;;;;;18.17;69.03;99811.06;5031194;28;20072;-80
2021/05/14 14:24:32;;;;;;;6.38;2.20;;;;;;;18.16;68.85;99814.81;5031187;28;20048;-77
2021/05/14 14:27:37;;;;;;;6.07;1.40;;;;;;;18.09;68.92;99819.34;5030449;28;20045;-77
2021/05/14 14:30:45;;;;;;;4.45;1.73;;;;;;;18.07;68.92;99821.41;5053667;28;20408;-76
2021/05/14 14:33:55;;;;;;;5.03;1.38;;;;;;;17.82;70.35;99815.56;5009356;28;20048;-76
2021/05/14 14:36:59;;;;;;;7.78;2.05;;;;;;;17.82;70.60;99831.00;5008670;28;20052;-75